Venus Seven — H9RN — position and weather

sailwx.info

Track history (hours):
 
Tides and Currents Weather Stations Pressure Air Temp Water Temp Dewpoint Dewpoint Depression Visibility Wind Speed Wind Dir Waves Ship Positions

Venus Seven

Last reported at 2015-Mar-27 12:31 UTC. Time now 2015-Mar-27 13:20 UTC.
Position N 34°38' E 135°25'.

Length 93 m; draft 4.6 m.

Type: Cargo ship. MMSI: 353405000.

Date/timePositionNaut miles runAvg speedWind from/ knotsBaromVisibWave heightAir tempDewpointWater temp
2015-Mar-27 12:31N 34°38' E 135°25'0 0.0
2015-Mar-27 11:25N 34°38' E 135°25'0 0.0
2015-Mar-27 10:31N 34°38' E 135°25'0 0.0
2015-Mar-27 09:31N 34°38' E 135°25'0 0.0
2015-Mar-27 08:25N 34°38' E 135°25'0 0.0
2015-Mar-27 07:31N 34°38' E 135°25'0 0.0
2015-Mar-27 06:31N 34°38' E 135°25'0 0.0
2015-Mar-27 05:31N 34°38' E 135°25'0 0.0
2015-Mar-27 04:31N 34°38' E 135°25'0 0.0
2015-Mar-27 03:31N 34°38' E 135°25'0 0.0
2015-Mar-27 02:31N 34°38' E 135°25'0 0.0
2015-Mar-27 01:31N 34°38' E 135°25'0 0.0
2015-Mar-27 00:25N 34°38' E 135°25'0 0.0
2015-Mar-26 23:31N 34°38' E 135°25'0 0.0
2015-Mar-26 22:31N 34°38' E 135°25'2 1.6
2015-Mar-26 21:20N 34°37' E 135°23'0 0.0
2015-Mar-26 20:32N 34°37' E 135°23'0 0.0
2015-Mar-26 19:32N 34°37' E 135°23'0 0.0
2015-Mar-26 18:32N 34°37' E 135°23'0 0.0
2015-Mar-26 17:26N 34°37' E 135°23'0 0.0
2015-Mar-26 16:31N 34°37' E 135°23'0 0.0
2015-Mar-26 15:31N 34°37' E 135°23'0 0.0
2015-Mar-26 14:31N 34°37' E 135°23'9 8.9
2015-Mar-26 13:33N 34°35' E 135°13'1412.9
2015-Mar-26 12:29N 34°36' E 134°56'2 0.1
2015-Mar-25 07:32N 34°35' E 134°53'9 9.0
2015-Mar-25 06:32N 34°36' E 135°04'1111.6
2015-Mar-25 05:33N 34°36' E 135°17'6 6.1
2015-Mar-25 04:30N 34°38' E 135°25'0 0.0
2015-Mar-25 03:11N 34°38' E 135°25'0 0.0
2015-Mar-25 02:29N 34°38' E 135°25'0 0.0
2015-Mar-25 01:29N 34°38' E 135°25'0 0.0
2015-Mar-25 00:29N 34°38' E 135°25'0 0.0
2015-Mar-24 23:29N 34°38' E 135°25'0 0.0
2015-Mar-24 22:29N 34°38' E 135°25'0 0.0
2015-Mar-24 21:29N 34°38' E 135°25'0 0.0
2015-Mar-24 20:23N 34°38' E 135°25'0 0.0
2015-Mar-24 19:29N 34°38' E 135°25'0 0.0
2015-Mar-24 18:29N 34°38' E 135°25'0 0.0
2015-Mar-24 17:29N 34°38' E 135°25'0 0.0
2015-Mar-24 16:29N 34°38' E 135°25'0 0.0
2015-Mar-24 15:29N 34°38' E 135°25'0 0.0
2015-Mar-24 14:23N 34°38' E 135°25'0 0.0
2015-Mar-24 13:29N 34°38' E 135°25'0 0.0
2015-Mar-24 12:29N 34°38' E 135°25'0 0.0
2015-Mar-24 11:29N 34°38' E 135°25'0 0.0
2015-Mar-24 10:23N 34°38' E 135°25'0 0.0
2015-Mar-24 09:29N 34°38' E 135°25'0 0.0
2015-Mar-24 08:23N 34°38' E 135°25'0 0.0
2015-Mar-24 07:29N 34°38' E 135°25'0 0.0
2015-Mar-24 06:29N 34°38' E 135°25'0 0.0
2015-Mar-24 05:29N 34°38' E 135°25'0 0.0
2015-Mar-24 04:29N 34°38' E 135°25'1 1.0
2015-Mar-24 03:33N 34°38' E 135°24'1211.5
2015-Mar-24 02:30N 34°30' E 135°13'1312.5
2015-Mar-24 01:27N 34°20' E 135°02'1111.8
2015-Mar-24 00:33N 34°10' E 134°59'1311.9
2015-Mar-23 23:26N 33°56' E 134°59'  
2015-Mar-19 14:21N 22°45' E 120°07'1012.6
2015-Mar-19 13:33N 22°38' E 120°14'3 3.2
2015-Mar-19 12:29N 22°36' E 120°17'0 0.0
2015-Mar-19 11:29N 22°36' E 120°17'0 0.0
2015-Mar-19 10:23N 22°36' E 120°17'0 0.0
2015-Mar-19 09:29N 22°36' E 120°17'0 0.0
2015-Mar-19 08:29N 22°36' E 120°17'0 0.0
2015-Mar-19 07:29N 22°36' E 120°17'0 0.0
2015-Mar-19 06:29N 22°36' E 120°17'0 0.0
2015-Mar-19 05:23N 22°36' E 120°17'0 0.0
2015-Mar-19 04:28N 22°36' E 120°17'0 0.0
2015-Mar-19 03:28N 22°36' E 120°17'0 0.0
2015-Mar-19 02:28N 22°36' E 120°17'0 0.0
2015-Mar-19 01:22N 22°36' E 120°17'0 0.0
2015-Mar-19 00:28N 22°36' E 120°17'0 0.0
2015-Mar-18 23:28N 22°36' E 120°17'0 0.0
2015-Mar-18 22:28N 22°36' E 120°17'0 0.0
2015-Mar-18 21:28N 22°36' E 120°17'0 0.0
2015-Mar-18 20:28N 22°36' E 120°17'0 0.0
2015-Mar-18 19:28N 22°36' E 120°17'0 0.0
2015-Mar-18 18:28N 22°36' E 120°17'0 0.0
2015-Mar-18 17:28N 22°36' E 120°17'0 0.0
2015-Mar-18 16:28N 22°36' E 120°17'0 0.0
2015-Mar-18 15:28N 22°36' E 120°17'0 0.0
2015-Mar-18 14:28N 22°36' E 120°17'0 0.0
2015-Mar-18 13:28N 22°36' E 120°17'0 0.0
2015-Mar-18 12:28N 22°36' E 120°17'4 3.0
2015-Mar-18 11:13N 22°37' E 120°13'710.4
2015-Mar-18 10:33N 22°43' E 120°09'  
Track history (hours):
 
Tides and Currents Weather Stations Pressure Air Temp Water Temp Dewpoint Dewpoint Depression Visibility Wind Speed Wind Dir Waves Ship Positions

Venus Seven

Last reported at 2015-Mar-27 12:31 UTC. Time now 2015-Mar-27 13:20 UTC.
Position N 34°38' E 135°25'.

Length 93 m; draft 4.6 m.

Type: Cargo ship. MMSI: 353405000.

Date/timePositionNaut miles runAvg speedWind from/ knotsBaromVisibWave heightAir tempDewpointWater temp
2015-Mar-27 12:31N 34°38' E 135°25'0 0.0
2015-Mar-27 11:25N 34°38' E 135°25'0 0.0
2015-Mar-27 10:31N 34°38' E 135°25'0 0.0
2015-Mar-27 09:31N 34°38' E 135°25'0 0.0
2015-Mar-27 08:25N 34°38' E 135°25'0 0.0
2015-Mar-27 07:31N 34°38' E 135°25'0 0.0
2015-Mar-27 06:31N 34°38' E 135°25'0 0.0
2015-Mar-27 05:31N 34°38' E 135°25'0 0.0
2015-Mar-27 04:31N 34°38' E 135°25'0 0.0
2015-Mar-27 03:31N 34°38' E 135°25'0 0.0
2015-Mar-27 02:31N 34°38' E 135°25'0 0.0
2015-Mar-27 01:31N 34°38' E 135°25'0 0.0
2015-Mar-27 00:25N 34°38' E 135°25'0 0.0
2015-Mar-26 23:31N 34°38' E 135°25'0 0.0
2015-Mar-26 22:31N 34°38' E 135°25'2 1.6
2015-Mar-26 21:20N 34°37' E 135°23'0 0.0
2015-Mar-26 20:32N 34°37' E 135°23'0 0.0
2015-Mar-26 19:32N 34°37' E 135°23'0 0.0
2015-Mar-26 18:32N 34°37' E 135°23'0 0.0
2015-Mar-26 17:26N 34°37' E 135°23'0 0.0
2015-Mar-26 16:31N 34°37' E 135°23'0 0.0
2015-Mar-26 15:31N 34°37' E 135°23'0 0.0
2015-Mar-26 14:31N 34°37' E 135°23'9 8.9
2015-Mar-26 13:33N 34°35' E 135°13'1412.9
2015-Mar-26 12:29N 34°36' E 134°56'2 0.1
2015-Mar-25 07:32N 34°35' E 134°53'9 9.0
2015-Mar-25 06:32N 34°36' E 135°04'1111.6
2015-Mar-25 05:33N 34°36' E 135°17'6 6.1
2015-Mar-25 04:30N 34°38' E 135°25'0 0.0
2015-Mar-25 03:11N 34°38' E 135°25'0 0.0
2015-Mar-25 02:29N 34°38' E 135°25'0 0.0
2015-Mar-25 01:29N 34°38' E 135°25'0 0.0
2015-Mar-25 00:29N 34°38' E 135°25'0 0.0
2015-Mar-24 23:29N 34°38' E 135°25'0 0.0
2015-Mar-24 22:29N 34°38' E 135°25'0 0.0
2015-Mar-24 21:29N 34°38' E 135°25'0 0.0
2015-Mar-24 20:23N 34°38' E 135°25'0 0.0
2015-Mar-24 19:29N 34°38' E 135°25'0 0.0
2015-Mar-24 18:29N 34°38' E 135°25'0 0.0
2015-Mar-24 17:29N 34°38' E 135°25'0 0.0
2015-Mar-24 16:29N 34°38' E 135°25'0 0.0
2015-Mar-24 15:29N 34°38' E 135°25'0 0.0
2015-Mar-24 14:23N 34°38' E 135°25'0 0.0
2015-Mar-24 13:29N 34°38' E 135°25'0 0.0
2015-Mar-24 12:29N 34°38' E 135°25'0 0.0
2015-Mar-24 11:29N 34°38' E 135°25'0 0.0
2015-Mar-24 10:23N 34°38' E 135°25'0 0.0
2015-Mar-24 09:29N 34°38' E 135°25'0 0.0
2015-Mar-24 08:23N 34°38' E 135°25'0 0.0
2015-Mar-24 07:29N 34°38' E 135°25'0 0.0
2015-Mar-24 06:29N 34°38' E 135°25'0 0.0
2015-Mar-24 05:29N 34°38' E 135°25'0 0.0
2015-Mar-24 04:29N 34°38' E 135°25'1 1.0
2015-Mar-24 03:33N 34°38' E 135°24'1211.5
2015-Mar-24 02:30N 34°30' E 135°13'1312.5
2015-Mar-24 01:27N 34°20' E 135°02'1111.8
2015-Mar-24 00:33N 34°10' E 134°59'1311.9
2015-Mar-23 23:26N 33°56' E 134°59'  
2015-Mar-19 14:21N 22°45' E 120°07'1012.6
2015-Mar-19 13:33N 22°38' E 120°14'3 3.2
2015-Mar-19 12:29N 22°36' E 120°17'0 0.0
2015-Mar-19 11:29N 22°36' E 120°17'0 0.0
2015-Mar-19 10:23N 22°36' E 120°17'0 0.0
2015-Mar-19 09:29N 22°36' E 120°17'0 0.0
2015-Mar-19 08:29N 22°36' E 120°17'0 0.0
2015-Mar-19 07:29N 22°36' E 120°17'0 0.0
2015-Mar-19 06:29N 22°36' E 120°17'0 0.0
2015-Mar-19 05:23N 22°36' E 120°17'0 0.0
2015-Mar-19 04:28N 22°36' E 120°17'0 0.0
2015-Mar-19 03:28N 22°36' E 120°17'0 0.0
2015-Mar-19 02:28N 22°36' E 120°17'0 0.0
2015-Mar-19 01:22N 22°36' E 120°17'0 0.0
2015-Mar-19 00:28N 22°36' E 120°17'0 0.0
2015-Mar-18 23:28N 22°36' E 120°17'0 0.0
2015-Mar-18 22:28N 22°36' E 120°17'0 0.0
2015-Mar-18 21:28N 22°36' E 120°17'0 0.0
2015-Mar-18 20:28N 22°36' E 120°17'0 0.0
2015-Mar-18 19:28N 22°36' E 120°17'0 0.0
2015-Mar-18 18:28N 22°36' E 120°17'0 0.0
2015-Mar-18 17:28N 22°36' E 120°17'0 0.0
2015-Mar-18 16:28N 22°36' E 120°17'0 0.0
2015-Mar-18 15:28N 22°36' E 120°17'0 0.0
2015-Mar-18 14:28N 22°36' E 120°17'0 0.0
2015-Mar-18 13:28N 22°36' E 120°17'0 0.0
2015-Mar-18 12:28N 22°36' E 120°17'4 3.0
2015-Mar-18 11:13N 22°37' E 120°13'710.4
2015-Mar-18 10:33N 22°43' E 120°09'  

Dump ship's entire track history